createdAt,value
2019-04-30T00:00:45.442Z,9.23
2019-04-30T00:03:55.788Z,9.80
2019-04-30T00:06:49.076Z,9.63
2019-04-30T00:09:44.987Z,9.95
2019-04-30T00:12:45.249Z,9.78
2019-04-30T00:15:45.279Z,9.58
2019-04-30T00:18:55.581Z,9.95
2019-04-30T00:21:39.980Z,9.85
2019-04-30T00:24:46.905Z,9.68
2019-04-30T00:27:39.303Z,9.85
2019-04-30T00:30:35.031Z,10.43
2019-04-30T00:33:29.863Z,10.68
2019-04-30T00:36:33.969Z,10.08
2019-04-30T00:39:27.270Z,10.75
2019-04-30T00:42:28.649Z,11.50
2019-04-30T00:45:25.083Z,10.68
2019-04-30T00:48:28.087Z,11.30
2019-04-30T00:51:21.219Z,12.53
2019-04-30T00:54:17.643Z,12.20
2019-04-30T00:57:15.195Z,11.12
2019-04-30T01:00:12.474Z,11.05
2019-04-30T01:03:15.715Z,12.15
2019-04-30T01:06:11.588Z,12.28
2019-04-30T01:09:08.718Z,12.50
2019-04-30T01:12:03.119Z,12.63
2019-04-30T01:15:01.719Z,13.50
2019-04-30T01:17:55.955Z,14.98
2019-04-30T01:20:50.156Z,15.75
2019-04-30T01:23:51.736Z,15.45
2019-04-30T01:26:41.085Z,16.20
2019-04-30T01:29:40.898Z,16.37
2019-04-30T01:32:33.702Z,16.90
2019-04-30T01:35:32.663Z,16.35
2019-04-30T01:38:26.030Z,16.23
2019-04-30T01:41:27.537Z,16.37
2019-04-30T01:44:16.511Z,16.80
2019-04-30T01:47:11.809Z,16.00
2019-04-30T01:50:06.827Z,16.57
2019-04-30T01:53:04.755Z,16.57
2019-04-30T01:56:09.025Z,17.30
2019-04-30T01:59:12.242Z,16.85
2019-04-30T02:02:09.446Z,15.10
2019-04-30T02:05:04.706Z,16.60
2019-04-30T02:08:02.666Z,15.65
2019-04-30T02:11:01.968Z,15.98
2019-04-30T02:14:02.279Z,16.60
2019-04-30T02:16:59.521Z,16.70
2019-04-30T02:19:56.843Z,15.83
2019-04-30T02:22:54.847Z,16.57
2019-04-30T02:25:53.474Z,16.65
2019-04-30T02:28:52.525Z,16.52
2019-04-30T02:31:52.605Z,16.15
2019-04-30T02:34:56.499Z,16.35
2019-04-30T02:38:15.485Z,16.30
2019-04-30T02:41:13.527Z,16.45
2019-04-30T02:44:09.875Z,16.60
2019-04-30T02:47:06.052Z,16.40
2019-04-30T02:50:14.446Z,16.85
2019-04-30T02:53:04.666Z,16.30
2019-04-30T02:56:02.620Z,16.40
2019-04-30T02:59:00.354Z,15.88
2019-04-30T03:01:54.248Z,16.82
2019-04-30T03:04:50.261Z,14.43
2019-04-30T03:07:52.946Z,15.20
2019-04-30T03:10:49.922Z,15.03
2019-04-30T03:13:44.268Z,14.15
2019-04-30T03:16:53.242Z,15.08
2019-04-30T03:20:00.218Z,14.83
2019-04-30T03:22:55.019Z,15.05
2019-04-30T03:25:50.667Z,15.32
2019-04-30T03:28:49.183Z,14.40
2019-04-30T03:31:51.812Z,13.85
2019-04-30T03:34:51.164Z,13.48
2019-04-30T03:37:49.764Z,14.55
2019-04-30T03:40:46.553Z,14.30
2019-04-30T03:43:41.455Z,14.15
2019-04-30T03:46:39.788Z,14.38
2019-04-30T03:49:34.505Z,14.15
2019-04-30T03:52:29.258Z,14.30
2019-04-30T03:55:24.999Z,14.45
2019-04-30T03:58:21.287Z,14.75
2019-04-30T04:01:40.480Z,15.68
2019-04-30T04:04:54.136Z,14.73
2019-04-30T04:08:09.580Z,15.28
2019-04-30T04:11:15.717Z,14.70
2019-04-30T04:14:10.445Z,14.83
2019-04-30T04:17:05.521Z,14.10
2019-04-30T04:20:00.160Z,14.75
2019-04-30T04:22:56.212Z,14.43
2019-04-30T04:25:52.694Z,15.50
2019-04-30T04:28:49.629Z,14.15
2019-04-30T04:31:49.776Z,14.58
2019-04-30T04:34:45.021Z,14.50
2019-04-30T04:37:41.998Z,14.50
2019-04-30T04:40:40.041Z,15.48
2019-04-30T04:43:34.968Z,14.70
2019-04-30T04:46:30.712Z,15.23
2019-04-30T04:49:25.982Z,13.93
2019-04-30T04:52:21.415Z,15.15
2019-04-30T04:55:21.897Z,15.60
2019-04-30T04:58:16.462Z,15.83
2019-04-30T05:01:14.088Z,15.72
2019-04-30T05:04:11.501Z,16.27
2019-04-30T05:07:12.194Z,14.85
2019-04-30T05:10:11.785Z,15.45
2019-04-30T05:13:09.077Z,14.63
2019-04-30T05:16:03.591Z,15.93
2019-04-30T05:19:01.204Z,15.13
2019-04-30T05:21:55.515Z,14.68
2019-04-30T05:24:51.026Z,14.40
2019-04-30T05:27:46.564Z,15.88
2019-04-30T05:30:59.957Z,16.12
2019-04-30T05:33:54.601Z,14.85
2019-04-30T05:36:53.214Z,14.15
2019-04-30T05:39:50.297Z,14.68
2019-04-30T05:42:51.596Z,13.68
2019-04-30T05:45:49.130Z,14.45
2019-04-30T05:48:49.342Z,13.83
2019-04-30T05:51:53.509Z,14.25
2019-04-30T05:54:43.971Z,14.07
2019-04-30T05:57:53.030Z,14.23
2019-04-30T06:01:05.427Z,13.50
2019-04-30T06:04:05.097Z,13.48
2019-04-30T06:07:05.164Z,14.23
2019-04-30T06:10:41.808Z,12.63
2019-04-30T06:14:00.005Z,13.60
2019-04-30T06:17:31.744Z,14.10
2019-04-30T06:20:33.363Z,12.33
2019-04-30T06:23:30.356Z,14.10
2019-04-30T06:26:41.463Z,14.30
2019-04-30T06:29:46.295Z,14.15
2019-04-30T06:32:45.155Z,14.13
2019-04-30T06:35:41.630Z,14.25
2019-04-30T06:38:41.512Z,14.50
2019-04-30T06:41:41.361Z,13.05
2019-04-30T06:44:41.336Z,14.18
2019-04-30T06:47:36.350Z,12.93
2019-04-30T06:50:34.874Z,13.48
2019-04-30T06:53:29.633Z,13.30
2019-04-30T06:56:25.982Z,13.20
2019-04-30T06:59:33.127Z,13.72
2019-04-30T07:02:50.560Z,13.62
2019-04-30T07:06:08.303Z,13.25
2019-04-30T07:13:25.359Z,13.62
2019-04-30T07:16:34.762Z,13.00
2019-04-30T07:19:53.172Z,13.38
2019-04-30T07:22:49.822Z,13.40
2019-04-30T07:25:39.100Z,12.93
2019-04-30T07:28:47.948Z,13.78
2019-04-30T07:31:51.525Z,13.55
2019-04-30T07:34:50.381Z,13.40
2019-04-30T07:38:04.863Z,13.05
2019-04-30T07:41:06.626Z,13.35
2019-04-30T07:44:10.792Z,13.03
2019-04-30T07:47:09.528Z,12.55
2019-04-30T07:50:09.951Z,13.30
2019-04-30T07:53:06.515Z,12.75
2019-04-30T07:56:23.591Z,13.40
2019-04-30T07:59:02.910Z,13.38
2019-04-30T08:02:09.868Z,13.22
2019-04-30T08:05:00.367Z,13.62
2019-04-30T08:08:16.783Z,13.00
2019-04-30T08:11:06.685Z,13.40
2019-04-30T08:14:45.018Z,13.62
2019-04-30T08:18:00.047Z,13.35
2019-04-30T08:20:53.050Z,13.55
2019-04-30T08:24:19.232Z,13.25
2019-04-30T08:27:13.410Z,12.82
2019-04-30T08:30:21.329Z,13.70
2019-04-30T08:33:09.734Z,12.23
2019-04-30T08:36:06.463Z,12.65
2019-04-30T08:39:01.736Z,12.82
2019-04-30T08:41:59.983Z,13.13
2019-04-30T08:44:54.700Z,12.55
2019-04-30T08:47:58.987Z,12.85
2019-04-30T08:55:12.755Z,13.58
2019-04-30T08:58:09.656Z,12.37
2019-04-30T09:00:58.763Z,12.75
2019-04-30T09:03:55.410Z,13.22
2019-04-30T09:06:53.008Z,13.08
2019-04-30T09:09:52.400Z,13.20
2019-04-30T09:12:47.144Z,12.65
2019-04-30T09:15:43.287Z,12.03
2019-04-30T09:18:42.615Z,12.93
2019-04-30T09:21:49.988Z,12.65
2019-04-30T09:24:49.526Z,12.75
2019-04-30T09:27:51.219Z,13.22
2019-04-30T09:30:50.181Z,12.35
2019-04-30T09:33:46.816Z,13.58
2019-04-30T09:36:41.134Z,13.65
2019-04-30T09:39:39.356Z,12.80
2019-04-30T09:42:34.116Z,13.32
2019-04-30T09:45:34.475Z,13.72
2019-04-30T09:48:31.022Z,13.20
2019-04-30T09:51:27.796Z,13.50
2019-04-30T09:54:25.101Z,13.55
2019-04-30T09:57:22.421Z,13.70
2019-04-30T10:00:24.005Z,12.73
2019-04-30T10:03:23.450Z,12.85
2019-04-30T10:06:36.312Z,12.65
2019-04-30T10:09:23.777Z,13.72
2019-04-30T10:12:23.716Z,13.10
2019-04-30T10:15:32.418Z,13.28
2019-04-30T10:18:28.757Z,12.98
2019-04-30T10:21:28.916Z,12.55
2019-04-30T10:24:49.439Z,12.10
2019-04-30T10:27:46.659Z,13.15
2019-04-30T10:31:15.512Z,12.85
2019-04-30T10:34:15.551Z,12.53
2019-04-30T10:37:18.941Z,11.53
2019-04-30T10:40:15.984Z,12.73
2019-04-30T10:43:24.147Z,13.00
2019-04-30T10:46:33.047Z,12.28
2019-04-30T10:49:29.373Z,12.15
2019-04-30T10:52:41.414Z,12.05
2019-04-30T10:55:48.442Z,12.03
2019-04-30T10:59:00.856Z,12.05
2019-04-30T11:06:19.063Z,11.85
2019-04-30T11:09:39.642Z,12.13
2019-04-30T11:12:33.976Z,12.45
2019-04-30T11:15:53.169Z,11.68
2019-04-30T11:19:09.185Z,11.53
2019-04-30T11:23:22.000Z,12.47
2019-04-30T11:26:47.210Z,12.33
2019-04-30T11:30:29.411Z,12.15
2019-04-30T11:38:41.306Z,11.85
2019-04-30T11:41:35.949Z,12.10
2019-04-30T11:44:48.735Z,11.90
2019-04-30T11:47:53.245Z,12.75
2019-04-30T11:50:43.323Z,12.10
2019-04-30T11:54:13.698Z,12.13
2019-04-30T11:57:11.902Z,12.63
2019-04-30T12:00:29.793Z,12.65
2019-04-30T12:03:25.050Z,13.03
2019-04-30T12:06:20.681Z,13.03
2019-04-30T12:09:42.717Z,12.40
2019-04-30T12:12:44.366Z,13.25
2019-04-30T12:15:42.172Z,13.18
2019-04-30T12:18:38.065Z,12.35
2019-04-30T12:21:37.942Z,13.50
2019-04-30T12:24:36.196Z,12.23
2019-04-30T12:27:39.409Z,12.65
2019-04-30T12:30:35.487Z,12.45
2019-04-30T12:33:35.569Z,13.00
2019-04-30T12:36:31.870Z,12.98
2019-04-30T12:39:30.117Z,12.68
2019-04-30T12:42:32.691Z,12.50
2019-04-30T12:45:34.386Z,12.43
2019-04-30T12:49:01.254Z,12.90
2019-04-30T12:52:20.912Z,12.47
2019-04-30T12:55:29.470Z,12.65
2019-04-30T12:58:27.402Z,12.10
2019-04-30T13:01:24.813Z,13.22
2019-04-30T13:04:23.301Z,13.35
2019-04-30T13:07:20.604Z,13.83
2019-04-30T13:10:15.734Z,14.00
2019-04-30T13:13:15.814Z,13.10
2019-04-30T13:16:11.638Z,13.78
2019-04-30T13:19:06.936Z,14.07
2019-04-30T13:22:03.837Z,13.18
2019-04-30T13:25:00.232Z,13.58
2019-04-30T13:28:02.373Z,13.88
2019-04-30T13:31:00.578Z,14.50
2019-04-30T13:34:02.446Z,14.15
2019-04-30T13:36:59.376Z,13.90
2019-04-30T13:40:02.402Z,13.78
2019-04-30T13:42:58.005Z,14.68
2019-04-30T13:45:53.553Z,14.85
2019-04-30T13:48:49.573Z,15.15
2019-04-30T13:51:45.891Z,16.30
2019-04-30T13:54:41.755Z,15.23
2019-04-30T13:57:44.147Z,16.17
2019-04-30T14:00:39.906Z,14.75
2019-04-30T14:03:51.795Z,16.00
2019-04-30T14:06:58.434Z,15.63
2019-04-30T14:09:54.140Z,15.38
2019-04-30T14:12:55.393Z,15.15
2019-04-30T14:15:50.819Z,15.88
2019-04-30T14:18:45.925Z,16.07
2019-04-30T14:21:42.132Z,16.15
2019-04-30T14:24:40.307Z,15.45
2019-04-30T14:27:49.059Z,15.72
2019-04-30T14:30:35.196Z,16.15
2019-04-30T14:33:32.280Z,15.78
2019-04-30T14:36:29.300Z,15.25
2019-04-30T14:39:26.593Z,15.28
2019-04-30T14:42:23.973Z,15.85
2019-04-30T14:45:26.003Z,16.20
2019-04-30T14:48:31.247Z,16.40
2019-04-30T14:51:29.121Z,15.88
2019-04-30T14:54:32.230Z,15.23
2019-04-30T14:57:51.082Z,15.13
2019-04-30T15:01:07.087Z,15.32
2019-04-30T15:04:04.591Z,15.58
2019-04-30T15:07:02.598Z,15.32
2019-04-30T15:09:59.440Z,14.98
2019-04-30T15:12:55.726Z,14.80
2019-04-30T15:15:52.392Z,15.63
2019-04-30T15:18:47.727Z,14.65
2019-04-30T15:21:44.843Z,14.70
2019-04-30T15:24:40.892Z,14.95
2019-04-30T15:27:44.270Z,14.80
2019-04-30T15:30:35.975Z,13.88
2019-04-30T15:33:46.487Z,14.75
2019-04-30T15:36:43.154Z,14.50
2019-04-30T15:39:45.800Z,14.05
2019-04-30T15:42:46.606Z,14.38
2019-04-30T15:45:46.273Z,13.22
2019-04-30T15:48:44.661Z,15.03
2019-04-30T15:51:42.749Z,14.25
2019-04-30T15:54:41.216Z,14.43
2019-04-30T15:57:59.270Z,14.58
2019-04-30T16:00:59.303Z,14.47
2019-04-30T16:03:58.177Z,14.45
2019-04-30T16:06:58.387Z,14.05
2019-04-30T16:10:16.279Z,13.80
2019-04-30T16:13:19.445Z,14.23
2019-04-30T16:16:15.863Z,13.58
2019-04-30T16:19:13.427Z,13.13
2019-04-30T16:22:10.742Z,14.00
2019-04-30T16:25:08.530Z,14.15
2019-04-30T16:28:04.330Z,13.10
2019-04-30T16:30:59.678Z,13.20
2019-04-30T16:33:54.700Z,13.15
2019-04-30T16:36:49.903Z,13.40
2019-04-30T16:39:46.104Z,13.13
2019-04-30T16:42:41.443Z,12.65
2019-04-30T16:45:38.926Z,12.63
2019-04-30T16:48:35.016Z,12.40
2019-04-30T16:51:34.952Z,12.78
2019-04-30T16:54:31.339Z,12.07
2019-04-30T16:57:30.114Z,12.73
2019-04-30T17:00:25.329Z,12.88
2019-04-30T17:03:32.134Z,13.00
2019-04-30T17:06:29.404Z,12.80
2019-04-30T17:09:38.746Z,11.50
2019-04-30T17:12:39.271Z,11.48
2019-04-30T17:15:36.085Z,11.50
2019-04-30T17:18:32.956Z,11.57
2019-04-30T17:21:29.649Z,10.53
2019-04-30T17:24:25.003Z,11.55
2019-04-30T17:27:22.192Z,10.68
2019-04-30T17:30:19.190Z,10.15
2019-04-30T17:33:13.398Z,10.23
2019-04-30T17:36:08.347Z,10.45
2019-04-30T17:39:03.908Z,9.85
2019-04-30T17:42:00.445Z,10.08
2019-04-30T17:44:58.887Z,9.55
2019-04-30T17:47:52.574Z,9.23
2019-04-30T17:50:47.180Z,9.60
2019-04-30T17:54:00.483Z,9.28
2019-04-30T17:56:55.779Z,8.73
2019-04-30T17:59:51.003Z,9.63
2019-04-30T18:02:46.245Z,9.20
2019-04-30T18:05:40.711Z,8.80
2019-04-30T18:08:36.044Z,9.03
2019-04-30T18:11:31.794Z,9.43
2019-04-30T18:14:28.597Z,9.50
2019-04-30T18:17:26.732Z,8.78
2019-04-30T18:20:49.146Z,9.50
2019-04-30T18:24:05.596Z,9.23
2019-04-30T18:27:05.684Z,9.13
2019-04-30T18:30:01.948Z,8.65
2019-04-30T18:32:58.407Z,8.95
2019-04-30T18:35:55.314Z,8.65
2019-04-30T18:38:53.833Z,8.53
2019-04-30T18:41:53.163Z,8.30
2019-04-30T18:44:52.950Z,8.48
2019-04-30T18:47:52.825Z,8.78
2019-04-30T18:50:48.775Z,8.53
2019-04-30T18:53:46.963Z,8.38
2019-04-30T18:56:42.492Z,8.15
2019-04-30T18:59:37.017Z,8.40
2019-04-30T19:02:31.291Z,8.53
2019-04-30T19:05:29.377Z,8.50
2019-04-30T19:08:30.478Z,7.83
2019-04-30T19:11:35.779Z,7.75
2019-04-30T19:14:36.273Z,7.97
2019-04-30T19:17:49.485Z,8.33
2019-04-30T19:20:47.218Z,8.03
2019-04-30T19:23:41.381Z,8.15
2019-04-30T19:26:35.893Z,8.43
2019-04-30T19:29:30.323Z,8.73
2019-04-30T19:32:24.734Z,7.97
2019-04-30T19:35:19.223Z,8.65
2019-04-30T19:38:13.785Z,8.28
2019-04-30T19:41:10.643Z,8.70
2019-04-30T19:44:04.083Z,8.80
2019-04-30T19:46:58.638Z,8.85
2019-04-30T19:49:52.907Z,7.92
2019-04-30T19:52:47.398Z,8.40
2019-04-30T19:55:41.854Z,8.78
2019-04-30T19:58:48.722Z,8.38
2019-04-30T20:01:31.438Z,8.70
2019-04-30T20:04:33.181Z,8.48
2019-04-30T20:07:22.129Z,9.08
2019-04-30T20:10:19.554Z,8.88
2019-04-30T20:13:30.836Z,9.20
2019-04-30T20:16:15.443Z,8.33
2019-04-30T20:19:09.720Z,8.90
2019-04-30T20:22:09.302Z,8.45
2019-04-30T20:25:05.682Z,9.08
2019-04-30T20:28:02.504Z,8.63
2019-04-30T20:30:57.215Z,8.68
2019-04-30T20:33:53.706Z,8.50
2019-04-30T20:36:47.916Z,8.53
2019-04-30T20:39:49.329Z,8.08
2019-04-30T20:42:44.908Z,8.68
2019-04-30T20:45:41.394Z,9.05
2019-04-30T20:48:41.191Z,8.63
2019-04-30T20:51:40.190Z,8.53
2019-04-30T20:54:34.261Z,8.20
2019-04-30T20:57:29.523Z,8.55
2019-04-30T21:00:24.145Z,8.93
2019-04-30T21:03:19.595Z,8.10
2019-04-30T21:06:15.225Z,8.03
2019-04-30T21:09:10.878Z,7.97
2019-04-30T21:12:05.891Z,8.80
2019-04-30T21:15:01.508Z,7.92
2019-04-30T21:17:56.054Z,8.43
2019-04-30T21:20:50.446Z,8.08
2019-04-30T21:23:45.738Z,8.55
2019-04-30T21:26:41.778Z,8.23
2019-04-30T21:29:38.745Z,8.50
2019-04-30T21:33:05.989Z,8.45
2019-04-30T21:36:19.138Z,8.55
2019-04-30T21:39:14.122Z,8.15
2019-04-30T21:42:09.430Z,8.68
2019-04-30T21:45:05.758Z,8.48
2019-04-30T21:48:02.767Z,8.38
2019-04-30T21:50:59.301Z,8.68
2019-04-30T21:53:55.838Z,8.35
2019-04-30T21:56:50.237Z,7.65
2019-04-30T21:59:44.906Z,8.50
2019-04-30T22:02:40.544Z,8.20
2019-04-30T22:05:36.161Z,9.08
2019-04-30T22:08:30.523Z,7.75
2019-04-30T22:11:25.220Z,9.13
2019-04-30T22:14:19.728Z,8.80
2019-04-30T22:17:14.508Z,8.40
2019-04-30T22:20:09.602Z,8.95
2019-04-30T22:23:05.427Z,9.05
2019-04-30T22:25:59.661Z,8.70
2019-04-30T22:28:54.391Z,7.87
2019-04-30T22:31:49.518Z,8.80
2019-04-30T22:34:43.793Z,8.93
2019-04-30T22:37:38.448Z,8.95
2019-04-30T22:40:33.390Z,8.20
2019-04-30T22:43:29.081Z,8.93
2019-04-30T22:46:24.664Z,9.30
2019-04-30T22:49:20.548Z,8.35
2019-04-30T22:52:15.554Z,8.63
2019-04-30T22:55:11.117Z,8.98
2019-04-30T22:58:05.865Z,8.70
2019-04-30T23:01:16.175Z,8.63
2019-04-30T23:04:15.465Z,8.78
2019-04-30T23:07:11.850Z,8.73
2019-04-30T23:10:08.131Z,9.35
2019-04-30T23:13:04.205Z,9.58
2019-04-30T23:15:59.164Z,8.85
2019-04-30T23:18:53.807Z,8.60
2019-04-30T23:21:48.510Z,9.10
2019-04-30T23:24:43.224Z,9.13
2019-04-30T23:27:37.348Z,8.25
2019-04-30T23:30:32.424Z,9.03
2019-04-30T23:33:26.942Z,8.75
2019-04-30T23:36:21.598Z,8.48
2019-04-30T23:39:16.448Z,8.35
2019-04-30T23:42:11.421Z,8.88
2019-04-30T23:45:05.649Z,8.20
2019-04-30T23:48:00.679Z,8.33
2019-04-30T23:50:56.025Z,9.20
2019-04-30T23:53:50.932Z,9.25
2019-04-30T23:56:46.071Z,9.65
2019-04-30T23:59:41.522Z,9.58
